Mill Creek, Mississippi
Current Conditions -  °F | °C
As of 8:56 AM on Sunday 23 Nov 2014 (Local Time) from KHSA Reporting Station
Broken Clouds Broken Clouds  
Wind Chill: 66°   Ceiling: 8000
Heat Index: 66°   Visibility: 7mi
Dew Point: 63°   Wind: 7mph
Humidity: 88%   Direction: 210°SSW
Pressure: 29.73"   Gusts: 14mph
Location:  30.6922°N, 89.5187°W
Report Text: KHSA 231456Z 21006G12KT 7SM BKN080 19/17 A2973
Loading
Personal Weather Stations






























Interactive Weather Map New forecast layout! Learn more

10-Day Weather Forecast

Advertisements
Track Severe Weather on mobile